GAP912 RPLL-RPMD
Flight info
| Callsign | GAP912 |
|---|---|
| Flight time | 1h 24m |
| Altitude | 36000 |
| Route | IPATA2R IPATA B462 MASBA W9A BN W9 RIMAR RIMAR2P |
| Aircraft | A320/M-SDE3FGHIRWY/LB1 |
Departure
| Time | 2026-05-05 06:51 |
|---|---|
| Airport | Ninoy Aquino International Airport (RPLL) |
Arrival
| Time | 2026-05-05 08:16 |
|---|---|
| Airport | Francisco Bangoy International Airport (RPMD) |
| Time | Latitude | Longitude | Altitude | Speed | Heading |
|---|---|---|---|---|---|
| 2026-05-05 06:35 | 14.50911 | 121.01411 | 69 ft | 0 kts | 331° |
| 2026-05-05 06:44 | 14.50901 | 121.01417 | 60 ft | 2 kts | 330° |
| 2026-05-05 06:44 | 14.50887 | 121.01425 | 59 ft | 2 kts | 331° |
| 2026-05-05 06:44 | 14.50872 | 121.01433 | 61 ft | 2 kts | 12° |
| 2026-05-05 06:45 | 14.50856 | 121.01432 | 59 ft | 2 kts | 340° |
| 2026-05-05 06:45 | 14.50841 | 121.01440 | 61 ft | 2 kts | 317° |
| 2026-05-05 06:45 | 14.50831 | 121.01453 | 64 ft | 2 kts | 270° |
| 2026-05-05 06:45 | 14.50831 | 121.01460 | 64 ft | 0 kts | 242° |
| 2026-05-05 06:46 | 14.50830 | 121.01459 | 64 ft | 1 kts | 242° |
| 2026-05-05 06:46 | 14.50798 | 121.01400 | 67 ft | 13 kts | 239° |
| 2026-05-05 06:47 | 14.50751 | 121.01325 | 68 ft | 12 kts | 221° |
| 2026-05-05 06:47 | 14.50681 | 121.01317 | 61 ft | 10 kts | 187° |
| 2026-05-05 06:47 | 14.50652 | 121.01289 | 65 ft | 8 kts | 239° |
| 2026-05-05 06:47 | 14.50595 | 121.01189 | 69 ft | 18 kts | 240° |
| 2026-05-05 06:48 | 14.50537 | 121.01081 | 69 ft | 17 kts | 241° |
| 2026-05-05 06:48 | 14.50482 | 121.00983 | 61 ft | 15 kts | 240° |
| 2026-05-05 06:48 | 14.50431 | 121.00894 | 67 ft | 14 kts | 240° |
| 2026-05-05 06:48 | 14.50383 | 121.00807 | 66 ft | 14 kts | 239° |
| 2026-05-05 06:49 | 14.50308 | 121.00673 | 65 ft | 28 kts | 240° |
| 2026-05-05 06:49 | 14.50242 | 121.00554 | 64 ft | 30 kts | 240° |
| 2026-05-05 06:49 | 14.50100 | 121.00299 | 67 ft | 31 kts | 238° |
| 2026-05-05 06:49 | 14.49990 | 121.00102 | 67 ft | 33 kts | 240° |
| 2026-05-05 06:50 | 14.49892 | 120.99966 | 68 ft | 17 kts | 191° |
| 2026-05-05 06:50 | 14.49819 | 121.00007 | 62 ft | 12 kts | 143° |
| 2026-05-05 06:50 | 14.49812 | 121.00061 | 66 ft | 12 kts | 71° |
| 2026-05-05 06:50 | 14.49861 | 121.00144 | 62 ft | 15 kts | 59° |
| 2026-05-05 06:51 | 14.50087 | 121.00549 | 64 ft | 95 kts | 60° |
| 2026-05-05 06:51 | 14.50355 | 121.01032 | 71 ft | 134 kts | 60° |
| 2026-05-05 06:51 | 14.50903 | 121.01965 | 300 ft | 159 kts | 63° |
| 2026-05-05 06:51 | 14.51451 | 121.02940 | 1023 ft | 156 kts | 61° |
| 2026-05-05 06:52 | 14.52012 | 121.03939 | 1681 ft | 166 kts | 61° |
| 2026-05-05 06:52 | 14.52610 | 121.05018 | 2200 ft | 183 kts | 63° |
| 2026-05-05 06:52 | 14.53268 | 121.06229 | 2589 ft | 204 kts | 62° |
| 2026-05-05 06:52 | 14.54008 | 121.07589 | 2932 ft | 230 kts | 62° |
| 2026-05-05 06:53 | 14.54835 | 121.09102 | 3406 ft | 251 kts | 62° |
| 2026-05-05 06:53 | 14.55699 | 121.10672 | 4214 ft | 257 kts | 62° |
| 2026-05-05 06:53 | 14.56319 | 121.12417 | 5059 ft | 262 kts | 83° |
| 2026-05-05 06:53 | 14.56144 | 121.14294 | 5927 ft | 267 kts | 109° |
| 2026-05-05 06:54 | 14.55183 | 121.15923 | 6651 ft | 275 kts | 132° |
| 2026-05-05 06:54 | 14.53795 | 121.17304 | 6902 ft | 276 kts | 135° |
| 2026-05-05 06:54 | 14.52375 | 121.18647 | 7239 ft | 280 kts | 136° |
| 2026-05-05 06:54 | 14.50938 | 121.19990 | 8156 ft | 278 kts | 136° |
| 2026-05-05 06:55 | 14.49493 | 121.21347 | 9028 ft | 281 kts | 136° |
| 2026-05-05 06:55 | 14.48065 | 121.22699 | 9855 ft | 284 kts | 136° |
| 2026-05-05 06:55 | 14.46581 | 121.24113 | 10341 ft | 299 kts | 136° |
| 2026-05-05 06:55 | 14.44999 | 121.25628 | 10559 ft | 321 kts | 136° |
| 2026-05-05 06:56 | 14.43337 | 121.27221 | 11041 ft | 332 kts | 136° |
| 2026-05-05 06:56 | 14.41624 | 121.28859 | 11682 ft | 337 kts | 136° |
| 2026-05-05 06:56 | 14.39894 | 121.30511 | 12343 ft | 341 kts | 136° |
| 2026-05-05 06:56 | 14.38145 | 121.32180 | 12989 ft | 345 kts | 136° |
| 2026-05-05 06:57 | 14.36395 | 121.33854 | 13613 ft | 349 kts | 136° |
| 2026-05-05 06:57 | 14.34604 | 121.35569 | 14168 ft | 353 kts | 136° |
| 2026-05-05 06:57 | 14.32815 | 121.37281 | 14731 ft | 357 kts | 136° |
| 2026-05-05 06:57 | 14.30988 | 121.39029 | 15291 ft | 360 kts | 136° |
| 2026-05-05 06:58 | 14.29174 | 121.40762 | 15836 ft | 364 kts | 136° |
| 2026-05-05 06:58 | 14.27310 | 121.42544 | 16401 ft | 367 kts | 136° |
| 2026-05-05 06:58 | 14.25425 | 121.44345 | 16935 ft | 371 kts | 137° |
| 2026-05-05 06:58 | 14.23521 | 121.46165 | 17476 ft | 374 kts | 137° |
| 2026-05-05 06:59 | 14.21625 | 121.47980 | 18003 ft | 378 kts | 137° |
| 2026-05-05 06:59 | 14.19683 | 121.49837 | 18490 ft | 381 kts | 137° |
| 2026-05-05 06:59 | 14.17732 | 121.51697 | 18955 ft | 384 kts | 137° |
| 2026-05-05 06:59 | 14.15761 | 121.53572 | 19441 ft | 387 kts | 137° |
| 2026-05-05 07:00 | 14.13773 | 121.55462 | 19924 ft | 389 kts | 137° |
| 2026-05-05 07:00 | 14.11771 | 121.57366 | 20410 ft | 392 kts | 137° |
| 2026-05-05 07:00 | 14.09763 | 121.59277 | 20899 ft | 395 kts | 137° |
| 2026-05-05 07:00 | 14.07733 | 121.61207 | 21381 ft | 397 kts | 137° |
| 2026-05-05 07:01 | 14.05696 | 121.63145 | 21869 ft | 400 kts | 137° |
| 2026-05-05 07:01 | 14.03669 | 121.65076 | 22358 ft | 403 kts | 138° |
| 2026-05-05 07:01 | 14.01602 | 121.67050 | 22838 ft | 406 kts | 138° |
| 2026-05-05 07:01 | 13.99520 | 121.69041 | 23320 ft | 408 kts | 138° |
| 2026-05-05 07:02 | 13.97430 | 121.71034 | 23723 ft | 411 kts | 138° |
| 2026-05-05 07:02 | 13.95342 | 121.73020 | 24088 ft | 413 kts | 138° |
| 2026-05-05 07:02 | 13.93219 | 121.75039 | 24439 ft | 415 kts | 138° |
| 2026-05-05 07:02 | 13.91089 | 121.77062 | 24794 ft | 418 kts | 138° |
| 2026-05-05 07:03 | 13.88942 | 121.79099 | 25140 ft | 421 kts | 138° |
| 2026-05-05 07:03 | 13.86789 | 121.81168 | 25482 ft | 423 kts | 135° |
| 2026-05-05 07:03 | 13.84841 | 121.83461 | 25811 ft | 426 kts | 131° |
| 2026-05-05 07:03 | 13.82957 | 121.85777 | 26137 ft | 429 kts | 131° |
| 2026-05-05 07:04 | 13.81028 | 121.88145 | 26462 ft | 431 kts | 131° |
| 2026-05-05 07:04 | 13.79095 | 121.90523 | 26777 ft | 433 kts | 131° |
| 2026-05-05 07:04 | 13.77148 | 121.92917 | 27085 ft | 436 kts | 131° |
| 2026-05-05 07:04 | 13.75228 | 121.95272 | 27386 ft | 438 kts | 131° |
| 2026-05-05 07:05 | 13.73256 | 121.97694 | 27680 ft | 440 kts | 131° |
| 2026-05-05 07:05 | 13.71276 | 122.00120 | 27984 ft | 443 kts | 131° |
| 2026-05-05 07:05 | 13.69292 | 122.02547 | 28277 ft | 445 kts | 131° |
| 2026-05-05 07:05 | 13.67289 | 122.04988 | 28557 ft | 447 kts | 131° |
| 2026-05-05 07:06 | 13.65276 | 122.07446 | 28833 ft | 449 kts | 131° |
| 2026-05-05 07:06 | 13.63258 | 122.09908 | 29110 ft | 452 kts | 131° |
| 2026-05-05 07:06 | 13.61433 | 122.12132 | 29358 ft | 454 kts | 131° |
| 2026-05-05 07:06 | 13.59391 | 122.14622 | 29631 ft | 456 kts | 131° |
| 2026-05-05 07:07 | 13.57339 | 122.17127 | 29891 ft | 458 kts | 131° |
| 2026-05-05 07:07 | 13.55282 | 122.19646 | 30115 ft | 460 kts | 131° |
| 2026-05-05 07:07 | 13.53240 | 122.22147 | 30323 ft | 462 kts | 131° |
| 2026-05-05 07:07 | 13.51169 | 122.24681 | 30535 ft | 463 kts | 131° |
| 2026-05-05 07:08 | 13.49086 | 122.27225 | 30739 ft | 465 kts | 131° |
| 2026-05-05 07:08 | 13.46999 | 122.29769 | 30947 ft | 467 kts | 131° |
| 2026-05-05 07:08 | 13.44904 | 122.32325 | 31152 ft | 468 kts | 131° |
| 2026-05-05 07:08 | 13.42802 | 122.34889 | 31349 ft | 469 kts | 131° |
| 2026-05-05 07:09 | 13.40695 | 122.37459 | 31650 ft | 468 kts | 131° |
| 2026-05-05 07:09 | 13.38593 | 122.40024 | 31937 ft | 467 kts | 131° |
| 2026-05-05 07:09 | 13.36526 | 122.42542 | 32209 ft | 467 kts | 131° |
| 2026-05-05 07:09 | 13.34428 | 122.45094 | 32517 ft | 466 kts | 131° |
| 2026-05-05 07:10 | 13.32329 | 122.47646 | 32809 ft | 465 kts | 131° |
| 2026-05-05 07:10 | 13.30261 | 122.50167 | 33103 ft | 465 kts | 131° |
| 2026-05-05 07:10 | 13.28173 | 122.52712 | 33402 ft | 464 kts | 131° |
| 2026-05-05 07:10 | 13.26095 | 122.55238 | 33715 ft | 463 kts | 131° |
| 2026-05-05 07:11 | 13.24028 | 122.57749 | 34000 ft | 463 kts | 131° |
| 2026-05-05 07:11 | 13.21944 | 122.60282 | 34255 ft | 462 kts | 131° |
| 2026-05-05 07:11 | 13.19894 | 122.62773 | 34501 ft | 462 kts | 131° |
| 2026-05-05 07:11 | 13.17819 | 122.65293 | 34741 ft | 462 kts | 131° |
| 2026-05-05 07:12 | 13.15742 | 122.67813 | 34976 ft | 462 kts | 131° |
| 2026-05-05 07:12 | 13.13667 | 122.70329 | 35205 ft | 461 kts | 131° |
| 2026-05-05 07:12 | 13.11593 | 122.72843 | 35441 ft | 461 kts | 131° |
| 2026-05-05 07:12 | 13.09558 | 122.75313 | 35662 ft | 461 kts | 131° |
| 2026-05-05 07:13 | 13.07513 | 122.77801 | 35817 ft | 461 kts | 131° |
| 2026-05-05 07:13 | 13.03404 | 122.82804 | 35859 ft | 456 kts | 131° |
| 2026-05-05 07:14 | 12.99295 | 122.87780 | 35859 ft | 455 kts | 132° |
| 2026-05-05 07:14 | 12.95223 | 122.92709 | 35858 ft | 455 kts | 132° |
| 2026-05-05 07:15 | 12.91121 | 122.97677 | 35856 ft | 455 kts | 132° |
| 2026-05-05 07:15 | 12.87055 | 123.02597 | 35859 ft | 455 kts | 132° |
| 2026-05-05 07:16 | 12.82960 | 123.07555 | 35862 ft | 455 kts | 132° |
| 2026-05-05 07:16 | 12.78861 | 123.12511 | 35866 ft | 455 kts | 132° |
| 2026-05-05 07:17 | 12.74781 | 123.17430 | 35863 ft | 455 kts | 132° |
| 2026-05-05 07:17 | 12.70694 | 123.22369 | 35868 ft | 454 kts | 131° |
| 2026-05-05 07:18 | 12.66597 | 123.27319 | 35865 ft | 454 kts | 131° |
| 2026-05-05 07:18 | 12.62528 | 123.32226 | 35869 ft | 454 kts | 132° |
| 2026-05-05 07:19 | 12.58432 | 123.37157 | 35870 ft | 454 kts | 132° |
| 2026-05-05 07:19 | 12.54345 | 123.42085 | 35873 ft | 453 kts | 132° |
| 2026-05-05 07:20 | 12.50281 | 123.46984 | 35874 ft | 453 kts | 132° |
| 2026-05-05 07:20 | 12.46187 | 123.51903 | 35871 ft | 453 kts | 132° |
| 2026-05-05 07:21 | 12.42121 | 123.56792 | 35875 ft | 453 kts | 132° |
| 2026-05-05 07:21 | 12.37978 | 123.61636 | 35875 ft | 451 kts | 138° |
| 2026-05-05 07:22 | 12.32868 | 123.65292 | 35875 ft | 447 kts | 153° |
| 2026-05-05 07:22 | 12.27379 | 123.68302 | 35868 ft | 447 kts | 153° |
| 2026-05-05 07:23 | 12.21932 | 123.71309 | 35864 ft | 447 kts | 153° |
| 2026-05-05 07:23 | 12.16451 | 123.74344 | 35859 ft | 448 kts | 153° |
| 2026-05-05 07:24 | 12.10963 | 123.77377 | 35856 ft | 448 kts | 153° |
| 2026-05-05 07:24 | 12.05485 | 123.80398 | 35862 ft | 448 kts | 153° |
| 2026-05-05 07:25 | 11.99979 | 123.83426 | 35861 ft | 448 kts | 153° |
| 2026-05-05 07:25 | 11.94475 | 123.86447 | 35862 ft | 449 kts | 153° |
| 2026-05-05 07:26 | 11.89002 | 123.89459 | 35864 ft | 449 kts | 153° |
| 2026-05-05 07:26 | 11.83502 | 123.92492 | 35867 ft | 449 kts | 153° |
| 2026-05-05 07:27 | 11.77993 | 123.95526 | 35866 ft | 449 kts | 153° |
| 2026-05-05 07:27 | 11.72525 | 123.98525 | 35869 ft | 448 kts | 153° |
| 2026-05-05 07:28 | 11.67023 | 124.01550 | 35867 ft | 448 kts | 153° |
| 2026-05-05 07:28 | 11.61523 | 124.04570 | 35869 ft | 448 kts | 153° |
| 2026-05-05 07:29 | 11.56085 | 124.07553 | 35873 ft | 448 kts | 153° |
| 2026-05-05 07:29 | 11.50671 | 124.10519 | 35875 ft | 448 kts | 153° |
| 2026-05-05 07:30 | 11.45180 | 124.13536 | 35874 ft | 447 kts | 152° |
| 2026-05-05 07:30 | 11.36984 | 124.18022 | 35870 ft | 447 kts | 153° |
| 2026-05-05 07:31 | 11.31480 | 124.21033 | 35868 ft | 447 kts | 152° |
| 2026-05-05 07:31 | 11.26001 | 124.24033 | 35865 ft | 447 kts | 152° |
| 2026-05-05 07:32 | 11.20546 | 124.27021 | 35864 ft | 447 kts | 152° |
| 2026-05-05 07:32 | 11.15060 | 124.30027 | 35864 ft | 447 kts | 152° |
| 2026-05-05 07:33 | 11.09571 | 124.33030 | 35868 ft | 447 kts | 152° |
| 2026-05-05 07:33 | 11.04110 | 124.36011 | 35867 ft | 447 kts | 152° |
| 2026-05-05 07:34 | 10.98591 | 124.38975 | 35859 ft | 447 kts | 153° |
| 2026-05-05 07:34 | 10.93078 | 124.41932 | 35858 ft | 448 kts | 152° |
| 2026-05-05 07:35 | 10.87594 | 124.44888 | 35867 ft | 448 kts | 152° |
| 2026-05-05 07:35 | 10.82079 | 124.47860 | 35864 ft | 448 kts | 152° |
| 2026-05-05 07:36 | 10.76596 | 124.50820 | 35865 ft | 448 kts | 152° |
| 2026-05-05 07:36 | 10.71093 | 124.53801 | 35865 ft | 448 kts | 152° |
| 2026-05-05 07:37 | 10.65579 | 124.56805 | 35863 ft | 448 kts | 152° |
| 2026-05-05 07:37 | 10.60113 | 124.59770 | 35864 ft | 448 kts | 152° |
| 2026-05-05 07:38 | 10.54606 | 124.62746 | 35858 ft | 448 kts | 152° |
| 2026-05-05 07:38 | 10.50017 | 124.65230 | 35862 ft | 448 kts | 152° |
| 2026-05-05 07:39 | 10.43606 | 124.68706 | 35864 ft | 448 kts | 152° |
| 2026-05-05 07:39 | 10.39029 | 124.71190 | 35860 ft | 449 kts | 152° |
| 2026-05-05 07:40 | 10.33512 | 124.74184 | 35857 ft | 449 kts | 152° |
| 2026-05-05 07:40 | 10.27995 | 124.77173 | 35859 ft | 449 kts | 152° |
| 2026-05-05 07:41 | 10.22471 | 124.80164 | 35855 ft | 449 kts | 152° |
| 2026-05-05 07:41 | 10.16984 | 124.83129 | 35852 ft | 450 kts | 152° |
| 2026-05-05 07:42 | 10.11525 | 124.86078 | 35852 ft | 450 kts | 152° |
| 2026-05-05 07:42 | 10.05998 | 124.89071 | 35841 ft | 450 kts | 152° |
| 2026-05-05 07:43 | 10.00497 | 124.92044 | 35846 ft | 450 kts | 152° |
| 2026-05-05 07:43 | 9.94950 | 124.95045 | 35847 ft | 451 kts | 152° |
| 2026-05-05 07:44 | 9.89411 | 124.98035 | 35851 ft | 451 kts | 152° |
| 2026-05-05 07:44 | 9.83894 | 125.01008 | 35847 ft | 451 kts | 152° |
| 2026-05-05 07:45 | 9.78337 | 125.04008 | 35843 ft | 451 kts | 152° |
| 2026-05-05 07:45 | 9.72789 | 125.07001 | 35844 ft | 451 kts | 152° |
| 2026-05-05 07:46 | 9.67262 | 125.09982 | 35844 ft | 451 kts | 152° |
| 2026-05-05 07:46 | 9.61743 | 125.12954 | 35842 ft | 451 kts | 152° |
| 2026-05-05 07:47 | 9.56188 | 125.15926 | 35845 ft | 451 kts | 152° |
| 2026-05-05 07:47 | 9.50625 | 125.18884 | 35835 ft | 451 kts | 152° |
| 2026-05-05 07:48 | 9.45070 | 125.21844 | 35833 ft | 451 kts | 152° |
| 2026-05-05 07:48 | 9.39531 | 125.24801 | 35848 ft | 451 kts | 152° |
| 2026-05-05 07:49 | 9.33970 | 125.27759 | 35841 ft | 451 kts | 152° |
| 2026-05-05 07:49 | 9.28407 | 125.30718 | 35845 ft | 451 kts | 152° |
| 2026-05-05 07:50 | 9.22842 | 125.33683 | 35833 ft | 451 kts | 152° |
| 2026-05-05 07:50 | 9.17354 | 125.36604 | 35846 ft | 451 kts | 152° |
| 2026-05-05 07:51 | 9.11862 | 125.39523 | 35848 ft | 450 kts | 152° |
| 2026-05-05 07:51 | 9.06309 | 125.42478 | 35848 ft | 450 kts | 152° |
| 2026-05-05 07:52 | 9.00757 | 125.45435 | 35852 ft | 450 kts | 152° |
| 2026-05-05 07:52 | 8.95116 | 125.48040 | 35847 ft | 449 kts | 164° |
| 2026-05-05 07:53 | 8.88952 | 125.49012 | 35855 ft | 448 kts | 174° |
| 2026-05-05 07:53 | 8.82729 | 125.49634 | 35845 ft | 449 kts | 174° |
| 2026-05-05 07:54 | 8.76505 | 125.50274 | 35853 ft | 449 kts | 174° |
| 2026-05-05 07:54 | 8.70325 | 125.50911 | 35849 ft | 449 kts | 174° |
| 2026-05-05 07:55 | 8.64076 | 125.51553 | 35829 ft | 451 kts | 174° |
| 2026-05-05 07:55 | 8.57852 | 125.52180 | 35646 ft | 453 kts | 174° |
| 2026-05-05 07:56 | 8.54705 | 125.52492 | 34130 ft | 459 kts | 174° |
| 2026-05-05 07:56 | 8.51474 | 125.52812 | 32130 ft | 472 kts | 174° |
| 2026-05-05 07:56 | 8.48159 | 125.53125 | 30194 ft | 481 kts | 174° |
| 2026-05-05 07:56 | 8.44800 | 125.53427 | 28065 ft | 488 kts | 174° |
| 2026-05-05 07:57 | 8.41434 | 125.53722 | 26824 ft | 477 kts | 173° |
| 2026-05-05 07:57 | 8.38220 | 125.53999 | 26484 ft | 448 kts | 173° |
| 2026-05-05 07:57 | 8.35213 | 125.54257 | 26244 ft | 422 kts | 173° |
| 2026-05-05 07:57 | 8.32382 | 125.54504 | 26012 ft | 407 kts | 173° |
| 2026-05-05 07:58 | 8.29576 | 125.54756 | 25780 ft | 403 kts | 173° |
| 2026-05-05 07:58 | 8.26795 | 125.55010 | 25559 ft | 402 kts | 173° |
| 2026-05-05 07:58 | 8.24015 | 125.55263 | 25326 ft | 399 kts | 173° |
| 2026-05-05 07:58 | 8.21245 | 125.55514 | 25092 ft | 397 kts | 173° |
| 2026-05-05 07:59 | 8.18493 | 125.55765 | 24871 ft | 396 kts | 172° |
| 2026-05-05 07:59 | 8.15789 | 125.56008 | 24654 ft | 394 kts | 173° |
| 2026-05-05 07:59 | 8.13060 | 125.56251 | 24433 ft | 393 kts | 173° |
| 2026-05-05 07:59 | 8.10344 | 125.56491 | 24211 ft | 391 kts | 173° |
| 2026-05-05 08:00 | 8.07632 | 125.56732 | 23998 ft | 390 kts | 173° |
| 2026-05-05 08:00 | 8.04937 | 125.56974 | 23725 ft | 386 kts | 172° |
| 2026-05-05 08:00 | 8.02260 | 125.57215 | 23236 ft | 385 kts | 172° |
| 2026-05-05 08:00 | 7.99600 | 125.57455 | 22707 ft | 383 kts | 172° |
| 2026-05-05 08:01 | 7.96938 | 125.57478 | 22219 ft | 384 kts | 183° |
| 2026-05-05 08:01 | 7.94316 | 125.56967 | 21721 ft | 385 kts | 194° |
| 2026-05-05 08:01 | 7.91751 | 125.56203 | 21228 ft | 384 kts | 194° |
| 2026-05-05 08:01 | 7.89192 | 125.55445 | 20724 ft | 383 kts | 194° |
| 2026-05-05 08:02 | 7.86667 | 125.54701 | 20226 ft | 382 kts | 194° |
| 2026-05-05 08:02 | 7.84115 | 125.53951 | 19724 ft | 382 kts | 194° |
| 2026-05-05 08:02 | 7.81564 | 125.53204 | 19211 ft | 382 kts | 194° |
| 2026-05-05 08:02 | 7.79018 | 125.52457 | 18732 ft | 381 kts | 194° |
| 2026-05-05 08:03 | 7.76470 | 125.51711 | 18237 ft | 381 kts | 194° |
| 2026-05-05 08:03 | 7.73924 | 125.50967 | 17694 ft | 381 kts | 194° |
| 2026-05-05 08:03 | 7.71390 | 125.50225 | 17205 ft | 378 kts | 194° |
| 2026-05-05 08:03 | 7.68862 | 125.49485 | 16726 ft | 376 kts | 194° |
| 2026-05-05 08:04 | 7.66357 | 125.48752 | 16250 ft | 374 kts | 194° |
| 2026-05-05 08:04 | 7.63860 | 125.48020 | 15776 ft | 373 kts | 194° |
| 2026-05-05 08:04 | 7.61383 | 125.47293 | 15340 ft | 371 kts | 194° |
| 2026-05-05 08:04 | 7.58915 | 125.46570 | 14948 ft | 367 kts | 194° |
| 2026-05-05 08:05 | 7.56462 | 125.45851 | 14514 ft | 363 kts | 194° |
| 2026-05-05 08:05 | 7.54102 | 125.45156 | 13949 ft | 353 kts | 194° |
| 2026-05-05 08:05 | 7.51782 | 125.44473 | 13473 ft | 341 kts | 194° |
| 2026-05-05 08:05 | 7.49545 | 125.43815 | 13020 ft | 329 kts | 194° |
| 2026-05-05 08:06 | 7.47390 | 125.43183 | 12601 ft | 317 kts | 194° |
| 2026-05-05 08:06 | 7.45307 | 125.42574 | 12194 ft | 306 kts | 194° |
| 2026-05-05 08:06 | 7.43269 | 125.41981 | 11794 ft | 305 kts | 195° |
| 2026-05-05 08:06 | 7.41235 | 125.41387 | 11397 ft | 304 kts | 195° |
| 2026-05-05 08:07 | 7.39210 | 125.40794 | 10990 ft | 303 kts | 195° |
| 2026-05-05 08:07 | 7.37190 | 125.40203 | 10711 ft | 302 kts | 195° |
| 2026-05-05 08:07 | 7.35154 | 125.39693 | 10341 ft | 300 kts | 187° |
| 2026-05-05 08:07 | 7.33074 | 125.39638 | 10124 ft | 300 kts | 173° |
| 2026-05-05 08:08 | 7.31011 | 125.40009 | 10025 ft | 303 kts | 167° |
| 2026-05-05 08:08 | 7.28987 | 125.40442 | 9643 ft | 308 kts | 167° |
| 2026-05-05 08:08 | 7.27049 | 125.40852 | 9260 ft | 306 kts | 167° |
| 2026-05-05 08:08 | 7.24968 | 125.41290 | 8832 ft | 306 kts | 167° |
| 2026-05-05 08:09 | 7.22894 | 125.41730 | 8453 ft | 303 kts | 167° |
| 2026-05-05 08:09 | 7.20857 | 125.42163 | 8083 ft | 301 kts | 167° |
| 2026-05-05 08:09 | 7.18804 | 125.42598 | 7674 ft | 301 kts | 167° |
| 2026-05-05 08:09 | 7.16748 | 125.43031 | 7166 ft | 303 kts | 167° |
| 2026-05-05 08:10 | 7.14686 | 125.43466 | 6736 ft | 303 kts | 167° |
| 2026-05-05 08:10 | 7.12623 | 125.43901 | 6325 ft | 303 kts | 167° |
| 2026-05-05 08:10 | 7.10568 | 125.44332 | 5894 ft | 302 kts | 167° |
| 2026-05-05 08:10 | 7.08518 | 125.44762 | 5483 ft | 299 kts | 167° |
| 2026-05-05 08:11 | 7.06570 | 125.45449 | 5075 ft | 296 kts | 147° |
| 2026-05-05 08:11 | 7.04959 | 125.46723 | 4654 ft | 294 kts | 138° |
| 2026-05-05 08:11 | 7.03423 | 125.48049 | 4203 ft | 285 kts | 138° |
| 2026-05-05 08:11 | 7.01996 | 125.49329 | 3810 ft | 260 kts | 130° |
| 2026-05-05 08:12 | 7.01297 | 125.50854 | 3472 ft | 233 kts | 91° |
| 2026-05-05 08:12 | 7.01677 | 125.52352 | 3149 ft | 217 kts | 57° |
| 2026-05-05 08:12 | 7.02562 | 125.53523 | 2838 ft | 205 kts | 47° |
| 2026-05-05 08:12 | 7.03519 | 125.54539 | 2572 ft | 195 kts | 45° |
| 2026-05-05 08:13 | 7.04432 | 125.55484 | 2326 ft | 182 kts | 46° |
| 2026-05-05 08:13 | 7.05283 | 125.56384 | 2035 ft | 173 kts | 47° |
| 2026-05-05 08:13 | 7.06087 | 125.57253 | 1795 ft | 166 kts | 48° |
| 2026-05-05 08:13 | 7.06840 | 125.58080 | 1600 ft | 154 kts | 49° |
| 2026-05-05 08:14 | 7.07537 | 125.58856 | 1385 ft | 146 kts | 49° |
| 2026-05-05 08:14 | 7.08196 | 125.59597 | 1191 ft | 140 kts | 50° |
| 2026-05-05 08:14 | 7.08837 | 125.60324 | 999 ft | 138 kts | 50° |
| 2026-05-05 08:14 | 7.09460 | 125.61035 | 804 ft | 136 kts | 51° |
| 2026-05-05 08:15 | 7.10068 | 125.61752 | 632 ft | 134 kts | 50° |
| 2026-05-05 08:15 | 7.10687 | 125.62458 | 466 ft | 135 kts | 49° |
| 2026-05-05 08:15 | 7.11307 | 125.63158 | 263 ft | 134 kts | 50° |
| 2026-05-05 08:15 | 7.11923 | 125.63850 | 113 ft | 131 kts | 49° |
| 2026-05-05 08:16 | 7.12446 | 125.64449 | 99 ft | 85 kts | 49° |
| 2026-05-05 08:16 | 7.12693 | 125.64736 | 101 ft | 43 kts | 48° |
| 2026-05-05 08:16 | 7.12838 | 125.64902 | 102 ft | 17 kts | 44° |
| 2026-05-05 08:16 | 7.12929 | 125.64876 | 102 ft | 13 kts | 317° |
| 2026-05-05 08:17 | 7.12997 | 125.64817 | 101 ft | 12 kts | 317° |
| 2026-05-05 08:17 | 7.13003 | 125.64755 | 101 ft | 9 kts | 243° |
| 2026-05-05 08:17 | 7.12978 | 125.64721 | 101 ft | 5 kts | 242° |
| 2026-05-05 08:17 | 7.12982 | 125.64696 | 101 ft | 3 kts | 297° |
| 2026-05-05 08:18 | 7.12995 | 125.64681 | 100 ft | 3 kts | 322° |
| 2026-05-05 08:18 | 7.13007 | 125.64670 | 101 ft | 2 kts | 320° |
| 2026-05-05 08:18 | 7.13018 | 125.64662 | 101 ft | 2 kts | 320° |
| 2026-05-05 08:18 | 7.13026 | 125.64655 | 101 ft | 1 kts | 320° |
| 2026-05-05 08:19 | 7.13032 | 125.64650 | 101 ft | 1 kts | 320° |
| 2026-05-05 08:19 | 7.13035 | 125.64647 | 101 ft | 0 kts | 320° |